Time;durP1;ratioP1;P1;durP2;ratioP2;P2;SDS_P1;SDS_P2;PMS_P1;PMS_P2;Temp;Humidity;BMP_temperature;BMP_pressure;BME280_temperature;BME280_humidity;BME280_pressure;Samples;Min_cycle;Max_cycle;Signal;HPM_P1;HPM_P2
2022/02/25 00:00:30;;;;;;;;;;;4.20;79.50;;;;;;5079462;28;19912;-74
2022/02/25 00:02:56;;;;;;;;;;;4.30;79.80;;;;;;5061311;28;20359;-74
2022/02/25 00:05:22;;;;;;;;;;;4.20;79.80;;;;;;5079503;28;19913;-74
2022/02/25 00:07:47;;;;;;;;;;;4.20;80.10;;;;;;5079598;28;19935;-74
2022/02/25 00:10:13;;;;;;;;;;;4.20;80.00;;;;;;5079081;28;19912;-74
2022/02/25 00:12:39;;;;;;;;;;;4.20;80.50;;;;;;5079061;28;20335;-74
2022/02/25 00:15:05;;;;;;;;;;;4.30;80.70;;;;;;5079253;28;19912;-74
2022/02/25 00:17:31;;;;;;;;;;;4.30;80.40;;;;;;5079296;28;19919;-74
2022/02/25 00:19:56;;;;;;;;;;;4.20;80.20;;;;;;5079117;28;19909;-74
2022/02/25 00:22:22;;;;;;;;;;;4.20;80.60;;;;;;5079134;28;19991;-74
2022/02/25 00:24:48;;;;;;;;;;;4.30;80.90;;;;;;5060923;28;19909;-73
2022/02/25 00:27:13;;;;;;;;;;;4.20;80.90;;;;;;5078814;28;19974;-74
2022/02/25 00:29:39;;;;;;;;;;;4.20;80.60;;;;;;5078891;28;20314;-74
2022/02/25 00:32:05;;;;;;;;;;;4.20;80.60;;;;;;5078918;28;20015;-74
2022/02/25 00:34:30;;;;;;;;;;;4.20;80.70;;;;;;5078810;28;19913;-74
2022/02/25 00:36:56;;;;;;;;;;;4.10;80.80;;;;;;5079130;28;20011;-74
2022/02/25 00:39:22;;;;;;;;;;;4.10;81.00;;;;;;5078508;28;20379;-74
2022/02/25 00:41:48;;;;;;;;;;;4.10;81.10;;;;;;5078602;28;19979;-74
2022/02/25 00:44:13;;;;;;;;;;;4.00;81.10;;;;;;5078381;28;19924;-74
2022/02/25 00:46:39;;;;;;;;;;;4.00;81.40;;;;;;5051818;28;19976;-74
2022/02/25 00:49:04;;;;;;;;;;;4.00;81.40;;;;;;5074004;28;19935;-74
2022/02/25 00:51:30;;;;;;;;;;;3.90;81.40;;;;;;5078674;28;19951;-74
2022/02/25 00:53:56;;;;;;;;;;;3.90;81.60;;;;;;5078401;28;19908;-74
2022/02/25 00:56:21;;;;;;;;;;;3.90;81.80;;;;;;5078420;28;20406;-74
2022/02/25 00:58:47;;;;;;;;;;;3.90;82.00;;;;;;5077636;28;19991;-74
2022/02/25 01:01:13;;;;;;;;;;;3.80;82.00;;;;;;5077847;28;20371;-74
2022/02/25 01:03:39;;;;;;;;;;;3.80;82.30;;;;;;5077889;28;19909;-75
2022/02/25 01:06:04;;;;;;;;;;;3.80;82.50;;;;;;5078296;28;20388;-74
2022/02/25 01:08:30;;;;;;;;;;;3.80;82.70;;;;;;5078016;28;19924;-75
2022/02/25 01:10:55;;;;;;;;;;;3.80;82.90;;;;;;5077980;28;19909;-75
2022/02/25 01:13:21;;;;;;;;;;;3.80;82.90;;;;;;5078141;28;20386;-75
2022/02/25 01:15:47;;;;;;;;;;;3.70;83.00;;;;;;5060274;28;19915;-75
2022/02/25 01:18:12;;;;;;;;;;;3.80;83.60;;;;;;5060075;28;20431;-75
2022/02/25 01:20:38;;;;;;;;;;;3.80;84.00;;;;;;5060204;28;19909;-75
2022/02/25 01:23:04;;;;;;;;;;;3.80;84.20;;;;;;5078143;28;21589;-75
2022/02/25 01:25:30;;;;;;;;;;;3.80;84.50;;;;;;5077794;28;19909;-75
2022/02/25 01:27:55;;;;;;;;;;;3.80;84.50;;;;;;5077975;28;19960;-75
2022/02/25 01:30:21;;;;;;;;;;;3.80;84.50;;;;;;5059927;28;19984;-75
2022/02/25 01:32:47;;;;;;;;;;;3.80;84.80;;;;;;5077777;28;19908;-75
2022/02/25 01:35:12;;;;;;;;;;;3.80;85.10;;;;;;5078261;28;19909;-75
2022/02/25 01:37:38;;;;;;;;;;;3.80;85.10;;;;;;5077862;28;20276;-75
2022/02/25 01:40:04;;;;;;;;;;;3.70;84.80;;;;;;5077735;28;19909;-75
2022/02/25 01:42:29;;;;;;;;;;;3.80;85.70;;;;;;5077245;28;19931;-75
2022/02/25 01:44:55;;;;;;;;;;;3.80;85.90;;;;;;5059562;28;19920;-75
2022/02/25 01:47:21;;;;;;;;;;;3.80;85.80;;;;;;5046350;28;20342;-75
2022/02/25 01:49:46;;;;;;;;;;;3.80;85.90;;;;;;5077887;28;19956;-75
2022/02/25 01:52:14;;;;;;;;;;;3.70;85.80;;;;;;5077619;28;20382;-75
2022/02/25 01:54:41;;;;;;;;;;;3.80;86.00;;;;;;5077915;28;19962;-75
2022/02/25 01:57:08;;;;;;;;;;;3.70;86.10;;;;;;5077368;28;19975;-75
2022/02/25 01:59:34;;;;;;;;;;;3.70;86.20;;;;;;5077922;28;19909;-75
2022/02/25 02:02:00;;;;;;;;;;;3.70;86.00;;;;;;5077595;28;19924;-75
2022/02/25 02:04:25;;;;;;;;;;;3.70;85.60;;;;;;5077438;28;19958;-74
2022/02/25 02:06:51;;;;;;;;;;;3.60;85.30;;;;;;5077423;28;19958;-75
2022/02/25 02:09:17;;;;;;;;;;;3.60;85.60;;;;;;5077640;28;19912;-75
2022/02/25 02:11:45;;;;;;;;;;;3.60;85.40;;;;;;5077551;28;19958;-75
2022/02/25 02:14:16;;;;;;;;;;;3.50;84.70;;;;;;5081823;28;19928;-74
2022/02/25 02:16:46;;;;;;;;;;;3.50;84.30;;;;;;5081512;28;19955;-75
2022/02/25 02:19:12;;;;;;;;;;;3.40;83.80;;;;;;5081714;28;19973;-74
2022/02/25 02:21:42;;;;;;;;;;;3.40;83.50;;;;;;5081340;28;19956;-75
2022/02/25 02:24:08;;;;;;;;;;;3.40;83.40;;;;;;5081332;28;20398;-75
2022/02/25 02:26:34;;;;;;;;;;;3.30;83.10;;;;;;5081023;28;19930;-75
2022/02/25 02:29:00;;;;;;;;;;;3.20;82.70;;;;;;5081154;28;19983;-75
2022/02/25 02:31:26;;;;;;;;;;;3.20;82.90;;;;;;5081123;28;19997;-75
2022/02/25 02:33:52;;;;;;;;;;;3.10;82.70;;;;;;5081105;28;19908;-75
2022/02/25 02:36:18;;;;;;;;;;;3.10;82.60;;;;;;5080907;28;19915;-75
2022/02/25 02:38:44;;;;;;;;;;;3.00;82.50;;;;;;5081197;28;19909;-75
2022/02/25 02:41:10;;;;;;;;;;;3.00;82.50;;;;;;5080412;28;19915;-75
2022/02/25 02:43:36;;;;;;;;;;;3.00;83.00;;;;;;5080827;28;19983;-75
2022/02/25 02:46:02;;;;;;;;;;;3.00;84.00;;;;;;5077111;28;19920;-75
2022/02/25 02:48:28;;;;;;;;;;;2.90;83.70;;;;;;5053846;28;19916;-75
2022/02/25 02:50:53;;;;;;;;;;;3.00;85.30;;;;;;5080764;28;19909;-75
2022/02/25 02:53:19;;;;;;;;;;;3.00;86.20;;;;;;5081154;28;19975;-75
2022/02/25 02:55:45;;;;;;;;;;;3.00;86.80;;;;;;5080294;28;19908;-75
2022/02/25 02:58:11;;;;;;;;;;;3.00;85.80;;;;;;5081071;28;19912;-75
2022/02/25 03:00:38;;;;;;;;;;;3.00;85.50;;;;;;5080653;28;20406;-75
2022/02/25 03:03:04;;;;;;;;;;;2.90;85.90;;;;;;5080688;28;19912;-75
2022/02/25 03:05:29;;;;;;;;;;;3.00;86.20;;;;;;5080639;28;20363;-75
2022/02/25 03:07:55;;;;;;;;;;;3.00;86.70;;;;;;5080772;28;19909;-75
2022/02/25 03:10:21;;;;;;;;;;;3.00;87.20;;;;;;5079987;28;19917;-75
2022/02/25 03:12:46;;;;;;;;;;;3.10;88.50;;;;;;5080406;28;19916;-75
2022/02/25 03:15:13;;;;;;;;;;;3.10;89.50;;;;;;5080350;28;19916;-75
2022/02/25 03:17:39;;;;;;;;;;;3.10;88.90;;;;;;5080660;28;19909;-75
2022/02/25 03:20:06;;;;;;;;;;;3.10;88.90;;;;;;5080178;28;19909;-75
2022/02/25 03:22:32;;;;;;;;;;;3.10;89.30;;;;;;5080394;28;20363;-75
2022/02/25 03:24:58;;;;;;;;;;;3.10;89.40;;;;;;5079391;28;20440;-75
2022/02/25 03:27:23;;;;;;;;;;;3.20;89.80;;;;;;5080031;28;19908;-75
2022/02/25 03:29:49;;;;;;;;;;;3.20;89.20;;;;;;5079981;28;19916;-75
2022/02/25 03:32:15;;;;;;;;;;;3.20;89.60;;;;;;5080194;28;19908;-75
2022/02/25 03:34:41;;;;;;;;;;;3.20;89.60;;;;;;5079963;28;19908;-75
2022/02/25 03:37:07;;;;;;;;;;;3.20;88.80;;;;;;5080221;28;19915;-75
2022/02/25 03:39:32;;;;;;;;;;;3.10;87.80;;;;;;5079706;28;19923;-75
2022/02/25 03:41:58;;;;;;;;;;;3.10;87.00;;;;;;5079773;28;20458;-75
2022/02/25 03:44:24;;;;;;;;;;;3.00;86.90;;;;;;5079661;28;20379;-75
2022/02/25 03:46:49;;;;;;;;;;;3.00;86.50;;;;;;5069760;28;19909;-75
2022/02/25 03:49:16;;;;;;;;;;;3.00;87.00;;;;;;5076668;28;19920;-75
2022/02/25 03:51:42;;;;;;;;;;;3.00;86.80;;;;;;5079860;28;19909;-75
2022/02/25 03:54:08;;;;;;;;;;;2.90;86.40;;;;;;5079638;28;20436;-75
2022/02/25 03:56:33;;;;;;;;;;;2.90;86.60;;;;;;5079510;28;19909;-75
2022/02/25 03:58:59;;;;;;;;;;;2.90;86.40;;;;;;5079616;28;19908;-75
2022/02/25 04:01:25;;;;;;;;;;;2.80;86.40;;;;;;5079757;28;19908;-75
2022/02/25 04:03:51;;;;;;;;;;;2.80;86.30;;;;;;5079159;28;19912;-74
2022/02/25 04:06:16;;;;;;;;;;;2.80;86.40;;;;;;5079694;28;20315;-75
2022/02/25 04:08:43;;;;;;;;;;;2.80;86.70;;;;;;5079311;28;19992;-75
2022/02/25 04:11:09;;;;;;;;;;;2.80;86.20;;;;;;5079286;28;19909;-75
2022/02/25 04:13:35;;;;;;;;;;;2.70;85.80;;;;;;5079263;28;19948;-75
2022/02/25 04:16:00;;;;;;;;;;;2.70;86.10;;;;;;5079460;28;19912;-75
2022/02/25 04:18:27;;;;;;;;;;;2.70;86.00;;;;;;5079153;28;19971;-75
2022/02/25 04:20:52;;;;;;;;;;;2.70;86.10;;;;;;5079194;28;19909;-75
2022/02/25 04:23:18;;;;;;;;;;;2.60;86.70;;;;;;5079025;28;20303;-75
2022/02/25 04:25:44;;;;;;;;;;;2.70;87.90;;;;;;5078958;28;20363;-75
2022/02/25 04:28:09;;;;;;;;;;;2.70;88.50;;;;;;5078924;28;20378;-75
2022/02/25 04:30:35;;;;;;;;;;;2.70;88.40;;;;;;5079393;28;19913;-75
2022/02/25 04:33:01;;;;;;;;;;;2.70;88.10;;;;;;5078757;28;19919;-75
2022/02/25 04:35:26;;;;;;;;;;;2.70;87.50;;;;;;5078236;28;19908;-75
2022/02/25 04:37:52;;;;;;;;;;;2.70;87.50;;;;;;5078689;28;20001;-75
2022/02/25 04:40:18;;;;;;;;;;;2.70;87.10;;;;;;5078581;28;19912;-75
2022/02/25 04:42:43;;;;;;;;;;;2.70;86.50;;;;;;5078841;28;19908;-75
2022/02/25 04:45:10;;;;;;;;;;;2.70;86.20;;;;;;5078618;28;19928;-75
2022/02/25 04:47:35;;;;;;;;;;;2.60;85.80;;;;;;5065140;28;19908;-75
2022/02/25 04:50:01;;;;;;;;;;;2.60;85.80;;;;;;5078722;28;19988;-75
2022/02/25 04:52:27;;;;;;;;;;;2.60;85.80;;;;;;5078426;28;19912;-75
2022/02/25 04:54:53;;;;;;;;;;;2.50;85.30;;;;;;5078645;28;19915;-75
2022/02/25 04:57:19;;;;;;;;;;;2.50;85.60;;;;;;5078033;28;19996;-75
2022/02/25 04:59:44;;;;;;;;;;;2.50;86.80;;;;;;5078637;28;19909;-74
2022/02/25 05:02:10;;;;;;;;;;;2.50;87.30;;;;;;5078207;28;19909;-75
2022/02/25 05:04:36;;;;;;;;;;;2.50;88.60;;;;;;5060526;28;20359;-75
2022/02/25 05:07:03;;;;;;;;;;;2.50;89.60;;;;;;5078110;28;20352;-75
2022/02/25 05:09:28;;;;;;;;;;;2.60;90.20;;;;;;5078333;28;19962;-75
2022/02/25 05:11:54;;;;;;;;;;;2.60;90.50;;;;;;5077843;28;19909;-75
2022/02/25 05:22:33;;;;;;;;;;;2.70;90.70;;;;;;5078290;28;20317;-75
2022/02/25 05:24:58;;;;;;;;;;;2.60;90.60;;;;;;5077752;28;19908;-75
2022/02/25 05:27:24;;;;;;;;;;;2.60;90.50;;;;;;5077959;28;19913;-75
2022/02/25 05:29:50;;;;;;;;;;;2.60;90.50;;;;;;5077803;28;19928;-75
2022/02/25 05:32:15;;;;;;;;;;;2.60;90.50;;;;;;5077896;28;19908;-75
2022/02/25 05:34:41;;;;;;;;;;;2.60;90.70;;;;;;5077792;28;19912;-74
2022/02/25 05:37:06;;;;;;;;;;;2.70;91.10;;;;;;5078169;28;20295;-74
2022/02/25 05:39:32;;;;;;;;;;;2.70;91.30;;;;;;5077615;28;20003;-76
2022/02/25 05:41:58;;;;;;;;;;;2.70;91.30;;;;;;5077563;28;19959;-73
2022/02/25 05:44:23;;;;;;;;;;;2.70;91.40;;;;;;5077609;28;19978;-70
2022/02/25 05:46:49;;;;;;;;;;;2.70;91.60;;;;;;5049256;28;21143;-78
2022/02/25 05:49:15;;;;;;;;;;;2.70;91.60;;;;;;5056773;28;19913;-74
2022/02/25 05:51:40;;;;;;;;;;;2.70;91.70;;;;;;5077841;28;19919;-75
2022/02/25 05:54:06;;;;;;;;;;;2.80;91.80;;;;;;5077553;28;20295;-75
2022/02/25 05:56:32;;;;;;;;;;;2.80;91.70;;;;;;5059432;28;19931;-72
2022/02/25 05:58:58;;;;;;;;;;;2.80;91.70;;;;;;5077539;28;19944;-75
2022/02/25 06:01:23;;;;;;;;;;;2.80;91.80;;;;;;5077835;28;19970;-75
2022/02/25 06:03:49;;;;;;;;;;;2.80;91.80;;;;;;5077270;28;19908;-82
2022/02/25 06:06:15;;;;;;;;;;;2.80;91.80;;;;;;5077839;28;19962;-75
2022/02/25 06:08:41;;;;;;;;;;;2.80;91.90;;;;;;5077402;28;19912;-77
2022/02/25 06:11:07;;;;;;;;;;;2.80;91.90;;;;;;5077367;28;19909;-78
2022/02/25 06:13:32;;;;;;;;;;;2.80;91.90;;;;;;5077461;28;19916;-72
2022/02/25 06:15:58;;;;;;;;;;;2.80;92.00;;;;;;5059582;28;19915;-72
2022/02/25 06:18:23;;;;;;;;;;;2.80;92.00;;;;;;5077390;28;19909;-72
2022/02/25 06:20:49;;;;;;;;;;;2.80;92.10;;;;;;5059565;28;20387;-72
2022/02/25 06:23:15;;;;;;;;;;;2.80;91.90;;;;;;5059275;28;19958;-72
2022/02/25 06:25:40;;;;;;;;;;;2.80;92.00;;;;;;5077219;28;19935;-71
2022/02/25 06:28:06;;;;;;;;;;;2.80;92.00;;;;;;5059269;28;19908;-72
2022/02/25 06:30:32;;;;;;;;;;;2.70;91.90;;;;;;5077485;28;19913;-72
2022/02/25 06:32:58;;;;;;;;;;;2.80;91.80;;;;;;5077167;28;19954;-72
2022/02/25 06:35:26;;;;;;;;;;;2.70;92.00;;;;;;5077365;28;19908;-72
2022/02/25 06:37:52;;;;;;;;;;;2.80;92.20;;;;;;5077187;28;19908;-72
2022/02/25 06:40:18;;;;;;;;;;;2.80;92.20;;;;;;5058767;28;19908;-72
2022/02/25 06:42:44;;;;;;;;;;;2.80;92.30;;;;;;5076578;28;19909;-72
2022/02/25 06:45:10;;;;;;;;;;;2.80;92.30;;;;;;5076829;28;19939;-72
2022/02/25 06:47:35;;;;;;;;;;;2.80;92.50;;;;;;5063457;28;20374;-72
2022/02/25 06:50:02;;;;;;;;;;;2.80;92.50;;;;;;5076883;28;19916;-72
2022/02/25 06:52:27;;;;;;;;;;;2.80;92.40;;;;;;5076865;28;19909;-71
2022/02/25 06:54:53;;;;;;;;;;;2.80;92.20;;;;;;5076865;28;19995;-72
2022/02/25 06:57:18;;;;;;;;;;;2.80;92.30;;;;;;5076760;28;19908;-71
2022/02/25 06:59:44;;;;;;;;;;;2.80;92.20;;;;;;5078991;28;19908;-72
2022/02/25 07:02:10;;;;;;;;;;;2.80;92.20;;;;;;5079764;28;20268;-72
2022/02/25 07:04:36;;;;;;;;;;;2.80;92.30;;;;;;5079971;28;19908;-73
2022/02/25 07:07:02;;;;;;;;;;;2.80;92.30;;;;;;5061805;28;19919;-72
2022/02/25 07:09:28;;;;;;;;;;;2.80;92.30;;;;;;5080197;28;19919;-72
2022/02/25 07:11:53;;;;;;;;;;;2.80;92.30;;;;;;5079683;28;19967;-73
2022/02/25 07:14:19;;;;;;;;;;;2.80;92.40;;;;;;5080604;28;19909;-72
2022/02/25 07:16:45;;;;;;;;;;;2.80;92.30;;;;;;5061975;28;19951;-73
2022/02/25 07:19:10;;;;;;;;;;;2.90;92.50;;;;;;5062250;28;19913;-72
2022/02/25 07:21:36;;;;;;;;;;;2.80;92.30;;;;;;5061700;28;20283;-72
2022/02/25 07:24:03;;;;;;;;;;;2.80;92.40;;;;;;5079840;28;19908;-71
2022/02/25 07:26:29;;;;;;;;;;;2.90;92.30;;;;;;5078969;28;19991;-72
2022/02/25 07:28:55;;;;;;;;;;;2.90;92.40;;;;;;5079198;28;19939;-72
2022/02/25 07:31:21;;;;;;;;;;;2.90;92.30;;;;;;5079093;28;19917;-71
2022/02/25 07:33:46;;;;;;;;;;;2.90;92.30;;;;;;5079661;28;19956;-72
2022/02/25 07:36:12;;;;;;;;;;;3.00;92.40;;;;;;5079511;28;19913;-72
2022/02/25 07:38:38;;;;;;;;;;;3.00;92.50;;;;;;5079594;28;20310;-72
2022/02/25 07:41:03;;;;;;;;;;;3.10;92.60;;;;;;5078947;28;19909;-73
2022/02/25 07:43:29;;;;;;;;;;;3.10;92.60;;;;;;5079161;28;19924;-72
2022/02/25 07:45:55;;;;;;;;;;;3.20;92.60;;;;;;5076662;28;19990;-72
2022/02/25 07:48:21;;;;;;;;;;;3.20;92.50;;;;;;5051666;28;19912;-72
2022/02/25 07:50:47;;;;;;;;;;;3.20;92.30;;;;;;5079305;28;19917;-72
2022/02/25 07:53:14;;;;;;;;;;;3.30;92.30;;;;;;5061214;28;19934;-72
2022/02/25 07:55:40;;;;;;;;;;;3.30;92.40;;;;;;5078532;28;19915;-72
2022/02/25 07:58:05;;;;;;;;;;;3.40;92.40;;;;;;5079844;28;19908;-72
2022/02/25 08:00:31;;;;;;;;;;;3.40;92.20;;;;;;5078781;28;20290;-72
2022/02/25 08:02:59;;;;;;;;;;;3.40;92.20;;;;;;5078822;28;19916;-72
2022/02/25 08:05:24;;;;;;;;;;;3.50;92.30;;;;;;5079043;28;20013;-72
2022/02/25 08:07:50;;;;;;;;;;;3.50;92.20;;;;;;5060827;28;19913;-72
2022/02/25 08:10:16;;;;;;;;;;;3.60;92.30;;;;;;5078251;28;19912;-72
2022/02/25 08:12:42;;;;;;;;;;;3.70;92.30;;;;;;5079275;28;19909;-72
2022/02/25 08:15:09;;;;;;;;;;;3.80;92.40;;;;;;5061065;28;19909;-72
2022/02/25 08:17:35;;;;;;;;;;;3.90;92.70;;;;;;5079322;28;19913;-72
2022/02/25 08:20:01;;;;;;;;;;;3.90;92.20;;;;;;5078994;28;19909;-72
2022/02/25 08:22:27;;;;;;;;;;;3.90;92.20;;;;;;5078978;28;20392;-72
2022/02/25 08:24:53;;;;;;;;;;;4.00;92.10;;;;;;5078583;28;19958;-72
2022/02/25 08:27:18;;;;;;;;;;;4.10;92.00;;;;;;5078666;28;19908;-72
2022/02/25 08:29:44;;;;;;;;;;;4.10;92.00;;;;;;5078307;28;19919;-72
2022/02/25 08:32:11;;;;;;;;;;;4.20;92.00;;;;;;5078287;28;19977;-72
2022/02/25 08:34:37;;;;;;;;;;;4.20;91.80;;;;;;5060553;28;19954;-72
2022/02/25 08:37:03;;;;;;;;;;;4.30;91.80;;;;;;5078295;28;19908;-72
2022/02/25 08:39:29;;;;;;;;;;;4.30;91.80;;;;;;5078141;28;20467;-71
2022/02/25 08:41:55;;;;;;;;;;;4.40;91.70;;;;;;5060497;28;19951;-72
2022/02/25 08:44:21;;;;;;;;;;;4.40;91.50;;;;;;5078137;28;19920;-72
2022/02/25 08:46:48;;;;;;;;;;;4.50;91.40;;;;;;5068742;28;19908;-72
2022/02/25 08:49:13;;;;;;;;;;;4.60;91.50;;;;;;5075098;28;19916;-72
2022/02/25 08:51:40;;;;;;;;;;;4.70;91.40;;;;;;5078545;28;19908;-72
2022/02/25 08:54:06;;;;;;;;;;;4.80;91.40;;;;;;5078111;28;19915;-72
2022/02/25 08:56:32;;;;;;;;;;;4.80;91.30;;;;;;5077971;28;19995;-72
2022/02/25 08:58:58;;;;;;;;;;;4.90;91.30;;;;;;5078197;28;19954;-72
2022/02/25 09:01:23;;;;;;;;;;;4.90;91.20;;;;;;5078551;28;19916;-72
2022/02/25 09:03:49;;;;;;;;;;;5.00;91.10;;;;;;5059871;28;19930;-72
2022/02/25 09:06:15;;;;;;;;;;;5.20;91.10;;;;;;5060351;28;19916;-72
2022/02/25 09:08:41;;;;;;;;;;;5.30;91.10;;;;;;5059568;28;19962;-72
2022/02/25 09:11:07;;;;;;;;;;;5.50;90.90;;;;;;5077646;28;19999;-72
2022/02/25 09:13:33;;;;;;;;;;;5.70;91.10;;;;;;5077989;28;19978;-72
2022/02/25 09:15:59;;;;;;;;;;;6.40;91.30;;;;;;5077964;28;19908;-72
2022/02/25 09:18:24;;;;;;;;;;;7.50;90.30;;;;;;5078191;28;19909;-72
2022/02/25 09:20:51;;;;;;;;;;;8.40;86.40;;;;;;5078250;28;19912;-72
2022/02/25 09:23:17;;;;;;;;;;;8.90;85.60;;;;;;5077146;28;20350;-72
2022/02/25 09:25:43;;;;;;;;;;;10.00;82.50;;;;;;5077492;28;19963;-72
2022/02/25 09:28:09;;;;;;;;;;;10.60;80.10;;;;;;5077752;28;19947;-72
2022/02/25 09:30:35;;;;;;;;;;;11.40;77.00;;;;;;5077931;28;19960;-72
2022/02/25 09:33:01;;;;;;;;;;;12.10;74.50;;;;;;5076748;28;19912;-72
2022/02/25 09:35:26;;;;;;;;;;;12.80;71.40;;;;;;5077872;28;19934;-73
2022/02/25 09:37:53;;;;;;;;;;;13.10;71.20;;;;;;5077374;28;19909;-72
2022/02/25 09:40:19;;;;;;;;;;;13.70;69.40;;;;;;5077047;28;20390;-73
2022/02/25 09:42:45;;;;;;;;;;;14.00;69.60;;;;;;5077258;28;19908;-73
2022/02/25 09:45:11;;;;;;;;;;;14.40;68.50;;;;;;5077250;28;19928;-73
2022/02/25 09:47:37;;;;;;;;;;;14.70;68.60;;;;;;5064043;28;19909;-73
2022/02/25 09:50:08;;;;;;;;;;;14.90;69.80;;;;;;5077443;28;20451;-73
2022/02/25 09:52:38;;;;;;;;;;;15.10;71.80;;;;;;5077220;28;19962;-72
2022/02/25 09:55:18;;;;;;;;;;;15.80;66.70;;;;;;5076965;28;20348;-73
2022/02/25 09:57:44;;;;;;;;;;;16.50;65.10;;;;;;5079592;28;20007;-73
2022/02/25 10:00:10;;;;;;;;;;;16.90;62.20;;;;;;5077214;28;19954;-73
2022/02/25 10:02:40;;;;;;;;;;;17.20;62.00;;;;;;5077303;28;19908;-72
2022/02/25 10:05:17;;;;;;;;;;;17.30;63.10;;;;;;5076722;28;19915;-72
2022/02/25 10:07:42;;;;;;;;;;;17.70;59.20;;;;;;5077339;28;20043;-73
2022/02/25 10:10:09;;;;;;;;;;;18.10;61.20;;;;;;5076605;28;19956;-72
2022/02/25 10:12:35;;;;;;;;;;;18.30;59.50;;;;;;5076785;28;19915;-73
2022/02/25 10:15:01;;;;;;;;;;;18.40;62.10;;;;;;5077209;28;19908;-73
2022/02/25 10:17:27;;;;;;;;;;;18.70;61.70;;;;;;5076970;28;19909;-73
2022/02/25 10:19:54;;;;;;;;;;;18.90;62.60;;;;;;5076904;28;19908;-73
2022/02/25 10:22:21;;;;;;;;;;;19.60;58.90;;;;;;5058756;28;19909;-73
2022/02/25 10:24:48;;;;;;;;;;;20.00;55.60;;;;;;5058522;28;19913;-72
2022/02/25 10:27:18;;;;;;;;;;;20.20;53.30;;;;;;5076740;28;20248;-73
2022/02/25 10:29:54;;;;;;;;;;;20.30;57.50;;;;;;5077064;28;19996;-73
2022/02/25 10:32:27;;;;;;;;;;;20.30;60.80;;;;;;5076727;28;19909;-73
2022/02/25 10:34:52;;;;;;;;;;;20.80;54.90;;;;;;5049090;28;19949;-73
2022/02/25 10:37:18;;;;;;;;;;;21.10;55.30;;;;;;5080428;28;19991;-73
2022/02/25 10:39:44;;;;;;;;;;;21.40;55.00;;;;;;5080314;28;19909;-73
2022/02/25 10:42:15;;;;;;;;;;;21.50;56.30;;;;;;5080424;28;19909;-73
2022/02/25 10:44:42;;;;;;;;;;;21.60;56.50;;;;;;5080222;28;19978;-73
2022/02/25 10:47:14;;;;;;;;;;;21.90;54.40;;;;;;5067166;28;19919;-73
2022/02/25 10:49:40;;;;;;;;;;;22.10;52.80;;;;;;5068123;28;19919;-72
2022/02/25 10:52:18;;;;;;;;;;;22.30;53.20;;;;;;5080290;28;19909;-73
2022/02/25 10:54:44;;;;;;;;;;;22.40;55.00;;;;;;5080603;28;19909;-73
2022/02/25 10:57:12;;;;;;;;;;;22.60;52.60;;;;;;5079739;28;20335;-73
2022/02/25 10:59:44;;;;;;;;;;;22.70;51.10;;;;;;5080094;28;19909;-72
2022/02/25 11:02:30;;;;;;;;;;;22.90;52.80;;;;;;5062194;28;19908;-73
2022/02/25 11:05:05;;;;;;;;;;;22.90;54.30;;;;;;5076441;28;19916;-72
2022/02/25 11:07:31;;;;;;;;;;;23.10;55.70;;;;;;5049956;28;19909;-72
2022/02/25 11:09:57;;;;;;;;;;;23.20;50.40;;;;;;5079149;28;19960;-72
2022/02/25 11:12:24;;;;;;;;;;;23.50;53.60;;;;;;5080037;28;19915;-72
2022/02/25 11:14:50;;;;;;;;;;;23.60;53.70;;;;;;5079830;28;19940;-73
2022/02/25 11:17:17;;;;;;;;;;;23.70;54.30;;;;;;5080183;28;19915;-72
2022/02/25 11:19:43;;;;;;;;;;;23.80;55.70;;;;;;5079924;28;19916;-73
2022/02/25 11:22:11;;;;;;;;;;;24.00;56.20;;;;;;5079847;28;19913;-73
2022/02/25 11:24:37;;;;;;;;;;;24.40;54.80;;;;;;5079050;28;19939;-73
2022/02/25 11:27:04;;;;;;;;;;;24.70;51.10;;;;;;5079400;28;20039;-73
2022/02/25 11:29:31;;;;;;;;;;;25.00;52.30;;;;;;5061438;28;19924;-72
2022/02/25 11:31:59;;;;;;;;;;;25.00;51.20;;;;;;5079804;28;19908;-72
2022/02/25 11:34:25;;;;;;;;;;;24.80;45.80;;;;;;5079370;28;19908;-72
2022/02/25 11:36:51;;;;;;;;;;;24.70;48.20;;;;;;5079743;28;19913;-72
2022/02/25 11:39:27;;;;;;;;;;;23.90;42.30;;;;;;5079125;28;19915;-72
2022/02/25 11:41:53;;;;;;;;;;;23.70;46.80;;;;;;5079493;28;19909;-72
2022/02/25 11:44:20;;;;;;;;;;;23.80;48.00;;;;;;5079181;28;19924;-72
2022/02/25 11:46:45;;;;;;;;;;;24.00;46.90;;;;;;5070056;28;19909;-71
2022/02/25 11:49:11;;;;;;;;;;;24.20;49.20;;;;;;5076137;28;19920;-72
2022/02/25 11:51:39;;;;;;;;;;;24.40;49.80;;;;;;5062179;28;20314;-72
2022/02/25 11:54:26;;;;;;;;;;;24.50;51.80;;;;;;5079671;28;20283;-71
2022/02/25 11:57:04;;;;;;;;;;;24.70;52.20;;;;;;5079521;28;19908;-72
2022/02/25 11:59:33;;;;;;;;;;;24.80;47.50;;;;;;5067902;28;20050;-74
2022/02/25 12:02:18;;;;;;;;;;;24.90;51.50;;;;;;5079677;28;19908;-72
2022/02/25 12:04:44;;;;;;;;;;;25.00;49.10;;;;;;5074863;28;20264;-73
2022/02/25 12:07:13;;;;;;;;;;;24.90;47.30;;;;;;5079303;28;19908;-73
2022/02/25 12:09:52;;;;;;;;;;;24.80;49.60;;;;;;5079279;28;20016;-74
2022/02/25 12:12:24;;;;;;;;;;;24.50;48.80;;;;;;5048589;28;19916;-74
2022/02/25 12:15:08;;;;;;;;;;;23.90;46.30;;;;;;5079195;28;19940;-73
2022/02/25 12:17:52;;;;;;;;;;;23.90;48.60;;;;;;5079415;28;19915;-73
2022/02/25 12:20:18;;;;;;;;;;;23.90;49.00;;;;;;5079256;28;19908;-72
2022/02/25 12:22:47;;;;;;;;;;;23.90;46.80;;;;;;5078970;28;19916;-71
2022/02/25 12:25:13;;;;;;;;;;;24.00;49.30;;;;;;5065875;28;19908;-77
2022/02/25 12:27:39;;;;;;;;;;;23.90;44.40;;;;;;5079210;28;19916;-76
2022/02/25 12:30:23;;;;;;;;;;;23.60;42.00;;;;;;5079093;28;19912;-77
2022/02/25 12:32:50;;;;;;;;;;;23.30;44.60;;;;;;5078359;28;19908;-76
2022/02/25 12:35:18;;;;;;;;;;;22.80;43.60;;;;;;5079084;28;20360;-77
2022/02/25 12:37:43;;;;;;;;;;;22.60;47.60;;;;;;5078790;28;19959;-77
2022/02/25 12:40:10;;;;;;;;;;;22.60;50.10;;;;;;5077810;28;20375;-77
2022/02/25 12:42:35;;;;;;;;;;;22.50;50.00;;;;;;5077934;28;19931;-77
2022/02/25 12:45:01;;;;;;;;;;;22.50;50.00;;;;;;5078267;28;19928;-77
2022/02/25 12:47:31;;;;;;;;;;;22.60;50.40;;;;;;5064996;28;19912;-76
2022/02/25 12:49:56;;;;;;;;;;;22.50;49.20;;;;;;5078259;28;19912;-76
2022/02/25 12:52:24;;;;;;;;;;;22.30;49.70;;;;;;5077415;28;21504;-77
2022/02/25 12:54:54;;;;;;;;;;;21.90;49.10;;;;;;5078117;28;19958;-76
2022/02/25 12:57:21;;;;;;;;;;;21.80;50.80;;;;;;5077145;28;19962;-77
2022/02/25 12:59:49;;;;;;;;;;;21.70;49.90;;;;;;5078101;28;20351;-76
2022/02/25 13:02:16;;;;;;;;;;;21.80;50.60;;;;;;5060062;28;19991;-76
2022/02/25 13:04:46;;;;;;;;;;;21.90;50.60;;;;;;5073223;28;20380;-76
2022/02/25 13:07:12;;;;;;;;;;;22.00;49.70;;;;;;5075901;28;19920;-76
2022/02/25 13:09:38;;;;;;;;;;;21.70;50.50;;;;;;5077419;28;19912;-76
2022/02/25 13:12:06;;;;;;;;;;;21.30;49.90;;;;;;5077724;28;19915;-76
2022/02/25 13:14:33;;;;;;;;;;;20.90;50.20;;;;;;5078193;28;19908;-76
2022/02/25 13:17:02;;;;;;;;;;;20.70;50.40;;;;;;5059867;28;19908;-76
2022/02/25 13:19:29;;;;;;;;;;;20.70;51.50;;;;;;5077616;28;19931;-76
2022/02/25 13:22:02;;;;;;;;;;;20.80;50.20;;;;;;5077760;28;20374;-76
2022/02/25 13:24:28;;;;;;;;;;;21.00;51.00;;;;;;5076688;28;19908;-76
2022/02/25 13:26:58;;;;;;;;;;;21.00;46.70;;;;;;5077789;28;19915;-76
2022/02/25 13:29:23;;;;;;;;;;;21.20;48.90;;;;;;5077483;28;19957;-76
2022/02/25 13:31:54;;;;;;;;;;;21.40;49.50;;;;;;5077623;28;19996;-76
2022/02/25 13:34:19;;;;;;;;;;;21.50;49.60;;;;;;5077172;28;19909;-76
2022/02/25 13:36:45;;;;;;;;;;;21.50;49.80;;;;;;5077906;28;19915;-76
2022/02/25 13:39:11;;;;;;;;;;;21.50;49.90;;;;;;5077498;28;19984;-76
2022/02/25 13:41:36;;;;;;;;;;;21.30;50.50;;;;;;5058932;28;19987;-76
2022/02/25 13:44:10;;;;;;;;;;;20.90;50.40;;;;;;5059011;28;19963;-76
2022/02/25 13:46:43;;;;;;;;;;;20.60;50.00;;;;;;5069087;28;19913;-76
2022/02/25 13:52:19;;;;;;;;;;;20.10;49.30;;;;;;5077329;28;19919;-76
2022/02/25 13:54:49;;;;;;;;;;;19.90;51.30;;;;;;5048067;28;20367;-76
2022/02/25 13:57:18;;;;;;;;;;;19.40;50.80;;;;;;5076946;28;19915;-76
2022/02/25 13:59:48;;;;;;;;;;;19.20;51.70;;;;;;5077387;28;20326;-76
2022/02/25 14:02:28;;;;;;;;;;;19.00;52.60;;;;;;5077335;28;19908;-76
2022/02/25 14:04:59;;;;;;;;;;;18.70;53.10;;;;;;5073220;28;19908;-76
2022/02/25 14:07:33;;;;;;;;;;;18.50;53.00;;;;;;5063553;28;19909;-76
2022/02/25 14:09:59;;;;;;;;;;;18.30;53.70;;;;;;5080768;28;19951;-76
2022/02/25 14:12:25;;;;;;;;;;;18.00;53.70;;;;;;5081263;28;20248;-76
2022/02/25 14:14:51;;;;;;;;;;;17.60;53.90;;;;;;5081161;28;19913;-76
2022/02/25 14:17:20;;;;;;;;;;;17.40;54.70;;;;;;5081443;28;20284;-76
2022/02/25 14:20:04;;;;;;;;;;;17.20;55.40;;;;;;5062643;28;19954;-76
2022/02/25 14:22:34;;;;;;;;;;;17.10;54.70;;;;;;5063275;28;19915;-76
2022/02/25 14:25:14;;;;;;;;;;;16.90;54.50;;;;;;5080735;28;19909;-76
2022/02/25 14:27:55;;;;;;;;;;;16.90;52.90;;;;;;5080779;28;19909;-76
2022/02/25 14:30:21;;;;;;;;;;;16.80;52.60;;;;;;5080273;28;19937;-76
2022/02/25 14:32:47;;;;;;;;;;;16.80;52.00;;;;;;5080619;28;20390;-76
2022/02/25 14:35:20;;;;;;;;;;;16.70;52.30;;;;;;5081417;28;19915;-76